createdAt,value
2024-04-18T00:00:35.509Z,100662.50
2024-04-18T00:03:05.342Z,100662.50
2024-04-18T00:05:32.576Z,100669.41
2024-04-18T00:08:02.429Z,100669.44
2024-04-18T00:10:32.238Z,100668.53
2024-04-18T00:13:02.004Z,100667.69
2024-04-18T00:15:29.220Z,100675.44
2024-04-18T00:17:59.507Z,100668.56
2024-04-18T00:20:26.735Z,100672.03
2024-04-18T00:22:57.118Z,100672.88
2024-04-18T00:25:34.791Z,100678.06
2024-04-18T00:28:04.857Z,100679.81
2024-04-18T00:30:41.256Z,100678.03
2024-04-18T00:33:12.261Z,100677.16
2024-04-18T00:35:39.649Z,100686.69
2024-04-18T00:38:15.007Z,100681.47
2024-04-18T00:40:45.201Z,100688.38
2024-04-18T00:43:23.076Z,100693.56
2024-04-18T00:45:54.095Z,100683.22
2024-04-18T00:48:25.115Z,100679.75
2024-04-18T00:50:56.640Z,100680.63
2024-04-18T00:53:28.136Z,100682.41
2024-04-18T00:55:58.802Z,100688.44
2024-04-18T00:58:47.876Z,100680.66
2024-04-18T01:01:22.456Z,100684.09
2024-04-18T01:03:59.441Z,100691.00
2024-04-18T01:06:47.828Z,100691.06
2024-04-18T01:09:15.640Z,100692.72
2024-04-18T01:12:08.605Z,100690.97
2024-04-18T01:14:35.809Z,100694.47
2024-04-18T01:17:06.893Z,100694.47
2024-04-18T01:19:34.327Z,100695.34
2024-04-18T01:22:06.150Z,100704.84
2024-04-18T01:24:34.082Z,100709.16
2024-04-18T01:27:07.902Z,100709.16
2024-04-18T01:29:44.773Z,100705.69
2024-04-18T01:32:36.390Z,100714.38
2024-04-18T01:35:05.654Z,100710.03
2024-04-18T01:37:51.033Z,100719.59
2024-04-18T01:40:18.834Z,100710.03
2024-04-18T01:43:11.948Z,100712.59
2024-04-18T01:45:58.060Z,100716.09
2024-04-18T01:48:27.850Z,100718.72
2024-04-18T01:51:13.740Z,100720.41
2024-04-18T01:53:43.542Z,100724.69
2024-04-18T01:56:19.839Z,100718.69
2024-04-18T01:58:52.271Z,100720.38
2024-04-18T02:01:24.453Z,100720.38
2024-04-18T02:03:54.620Z,100723.88
2024-04-18T02:06:21.684Z,100728.19
2024-04-18T02:08:51.610Z,100729.06
2024-04-18T02:11:41.605Z,100728.19
2024-04-18T02:14:17.343Z,100732.53
2024-04-18T02:16:44.548Z,100735.97
2024-04-18T02:19:26.730Z,100728.19
2024-04-18T02:22:20.015Z,100737.72
2024-04-18T02:25:12.481Z,100736.81
2024-04-18T02:27:40.478Z,100739.41
2024-04-18T02:30:28.580Z,100739.38
2024-04-18T02:33:13.741Z,100746.31
2024-04-18T02:35:47.077Z,100742.84
2024-04-18T02:38:35.690Z,100750.63
2024-04-18T02:41:04.394Z,100754.06
2024-04-18T02:43:56.139Z,100746.28
2024-04-18T02:46:25.862Z,100747.97
2024-04-18T02:49:14.414Z,100760.91
2024-04-18T02:51:56.908Z,100763.50
2024-04-18T02:54:45.731Z,100773.00
2024-04-18T02:57:12.862Z,100773.91
2024-04-18T02:59:42.835Z,100770.47
2024-04-18T03:02:28.022Z,100769.56
2024-04-18T03:05:14.077Z,100768.69
2024-04-18T03:07:43.713Z,100766.13
2024-04-18T03:10:10.839Z,100776.44
2024-04-18T03:13:00.506Z,100773.84
2024-04-18T03:15:47.156Z,100774.75
2024-04-18T03:18:19.692Z,100773.03
2024-04-18T03:20:55.537Z,100771.28
2024-04-18T03:23:43.229Z,100773.88
2024-04-18T03:26:32.979Z,100775.59
2024-04-18T03:29:00.171Z,100780.78
2024-04-18T03:31:29.858Z,100780.75
2024-04-18T03:33:59.614Z,100790.28
2024-04-18T03:36:29.297Z,100784.19
2024-04-18T03:39:02.206Z,100796.34
2024-04-18T03:41:31.951Z,100796.31
2024-04-18T03:44:17.782Z,100799.78
2024-04-18T03:46:47.484Z,100808.44
2024-04-18T03:49:39.075Z,100811.88
2024-04-18T03:52:06.690Z,100809.28
2024-04-18T03:54:51.448Z,100809.34
2024-04-18T03:57:40.478Z,100809.38
2024-04-18T04:00:11.360Z,100816.25
2024-04-18T04:02:40.442Z,100812.75
2024-04-18T04:05:12.976Z,100817.94
2024-04-18T04:07:40.166Z,100820.53
2024-04-18T04:10:10.055Z,100824.81
2024-04-18T04:12:41.285Z,100822.25
2024-04-18T04:15:08.820Z,100822.25
2024-04-18T04:17:40.697Z,100834.38
2024-04-18T04:20:10.575Z,100834.38
2024-04-18T04:22:40.348Z,100830.88
2024-04-18T04:25:25.651Z,100840.41
2024-04-18T04:27:55.404Z,100842.16
2024-04-18T04:30:22.511Z,100847.38
2024-04-18T04:32:52.215Z,100839.59
2024-04-18T04:35:37.173Z,100839.59
2024-04-18T04:38:07.136Z,100856.00
2024-04-18T04:40:34.560Z,100859.47
2024-04-18T04:43:04.399Z,100860.38
2024-04-18T04:45:31.641Z,100860.34
2024-04-18T04:48:09.005Z,100870.69
2024-04-18T04:51:00.879Z,100867.25
2024-04-18T04:53:36.695Z,100875.91
2024-04-18T04:56:04.118Z,100875.94
2024-04-18T04:58:33.823Z,100880.22
2024-04-18T05:01:01.057Z,100886.28
2024-04-18T05:03:39.722Z,100891.47
2024-04-18T05:06:27.835Z,100895.88
2024-04-18T05:09:19.544Z,100888.97
2024-04-18T05:11:46.836Z,100904.50
2024-04-18T05:14:35.392Z,100901.00
2024-04-18T05:17:22.394Z,100905.31
2024-04-18T05:20:12.745Z,100915.69
2024-04-18T05:22:42.512Z,100913.97
2024-04-18T05:25:14.244Z,100912.28
2024-04-18T05:27:46.228Z,100927.78
2024-04-18T05:30:51.943Z,100931.25
2024-04-18T05:33:21.949Z,100935.53
2024-04-18T05:35:51.786Z,100937.28
2024-04-18T05:38:24.289Z,100952.84
2024-04-18T05:40:54.040Z,100955.41
2024-04-18T05:43:43.731Z,100946.81
2024-04-18T05:46:13.509Z,100952.84
2024-04-18T05:48:43.269Z,100946.78
2024-04-18T05:51:13.009Z,100964.16
2024-04-18T05:54:05.775Z,100952.94
2024-04-18T05:56:35.439Z,100961.56
2024-04-18T05:59:05.118Z,100969.34
2024-04-18T06:01:35.771Z,100971.19
2024-04-18T06:04:05.645Z,100981.53
2024-04-18T06:06:35.495Z,100988.44
2024-04-18T06:09:23.754Z,100996.19
2024-04-18T06:11:53.473Z,100991.97
2024-04-18T06:14:23.154Z,100998.94
2024-04-18T06:16:53.474Z,101006.72
2024-04-18T06:19:43.193Z,100999.84
2024-04-18T06:22:30.716Z,101006.81
2024-04-18T06:25:21.637Z,101004.31
2024-04-18T06:27:51.499Z,101005.34
2024-04-18T06:30:21.695Z,101009.63
2024-04-18T06:32:51.501Z,101010.56
2024-04-18T06:35:21.299Z,101011.47
2024-04-18T06:37:51.725Z,101027.91
2024-04-18T06:40:24.965Z,101020.97
2024-04-18T06:42:55.124Z,101022.66
2024-04-18T06:45:26.368Z,101030.44
2024-04-18T06:47:56.462Z,101037.44
2024-04-18T06:50:27.115Z,101040.03
2024-04-18T06:52:57.164Z,101048.66
2024-04-18T06:55:29.571Z,101047.78
2024-04-18T06:57:59.832Z,101047.81
2024-04-18T07:00:30.002Z,101054.75
2024-04-18T07:02:59.793Z,101053.81
2024-04-18T07:05:48.655Z,101063.38
2024-04-18T07:08:25.434Z,101069.53
2024-04-18T07:11:00.056Z,101067.06
2024-04-18T07:13:32.816Z,101069.72
2024-04-18T07:16:06.948Z,101069.75
2024-04-18T07:18:55.651Z,101062.84
2024-04-18T07:21:25.908Z,101068.94
2024-04-18T07:24:15.805Z,101080.97
2024-04-18T07:26:48.393Z,101076.66
2024-04-18T07:29:15.611Z,101090.59
2024-04-18T07:31:45.494Z,101083.69
2024-04-18T07:34:15.462Z,101090.63
2024-04-18T07:36:47.242Z,101094.09
2024-04-18T07:39:17.045Z,101087.22
2024-04-18T07:41:50.380Z,101088.94
2024-04-18T07:44:23.016Z,101092.41
2024-04-18T07:46:54.712Z,101097.59
2024-04-18T07:49:24.442Z,101100.16
2024-04-18T07:51:56.843Z,101108.75
2024-04-18T07:54:27.140Z,101108.78
2024-04-18T07:56:57.312Z,101107.09
2024-04-18T07:59:27.927Z,101112.38
2024-04-18T08:01:59.904Z,101121.91
2024-04-18T08:04:50.611Z,101121.03
2024-04-18T08:07:23.186Z,101122.78
2024-04-18T08:09:57.556Z,101119.31
2024-04-18T08:12:35.676Z,101131.47
2024-04-18T08:15:14.246Z,101127.09
2024-04-18T08:17:47.218Z,101138.38
2024-04-18T08:20:16.931Z,101135.78
2024-04-18T08:22:47.613Z,101137.50
2024-04-18T08:25:17.732Z,101144.41
2024-04-18T08:27:50.373Z,101141.72
2024-04-18T08:30:20.724Z,101138.25
2024-04-18T08:32:50.619Z,101146.03
2024-04-18T08:35:20.499Z,101136.59
2024-04-18T08:37:51.644Z,101139.56
2024-04-18T08:40:22.242Z,101144.25
2024-04-18T08:42:55.309Z,101148.09
2024-04-18T08:45:29.550Z,101160.31
2024-04-18T08:48:02.155Z,101160.63
2024-04-18T08:50:33.123Z,101157.00
2024-04-18T08:53:04.149Z,101157.09
2024-04-18T08:55:36.455Z,101154.22
2024-04-18T08:58:16.452Z,101165.44
2024-04-18T09:00:49.191Z,101161.13
2024-04-18T09:03:22.180Z,101168.13
2024-04-18T09:05:51.921Z,101174.38
2024-04-18T09:08:21.672Z,101172.56
2024-04-18T09:10:52.196Z,101173.47
2024-04-18T09:13:26.238Z,101185.72
2024-04-18T09:15:57.054Z,101180.47
2024-04-18T09:18:28.160Z,101180.78
2024-04-18T09:20:58.667Z,101179.28
2024-04-18T09:23:28.499Z,101172.84
2024-04-18T09:25:58.246Z,101174.22
2024-04-18T09:28:30.794Z,101188.25
2024-04-18T09:31:04.932Z,101180.91
2024-04-18T09:33:36.856Z,101177.66
2024-04-18T09:36:08.205Z,101183.47
2024-04-18T09:38:44.036Z,101184.47
2024-04-18T09:41:18.269Z,101185.31
2024-04-18T09:44:04.191Z,101187.72
2024-04-18T09:46:35.598Z,101190.91
2024-04-18T09:49:06.522Z,101197.38
2024-04-18T09:51:36.517Z,101199.44
2024-04-18T09:54:09.121Z,101192.22
2024-04-18T09:56:41.592Z,101198.72
2024-04-18T09:59:16.191Z,101205.28
2024-04-18T10:01:46.565Z,101205.06
2024-04-18T10:04:16.956Z,101220.16
2024-04-18T10:06:50.285Z,101219.78
2024-04-18T10:09:22.264Z,101227.06
2024-04-18T10:11:52.390Z,101234.94
2024-04-18T10:14:25.251Z,101230.50
2024-04-18T10:16:55.269Z,101232.16
2024-04-18T10:19:23.655Z,101237.97
2024-04-18T10:22:11.405Z,101230.59
2024-04-18T10:24:52.784Z,101228.22
2024-04-18T10:27:25.084Z,101232.56
2024-04-18T10:30:03.153Z,101227.38
2024-04-18T10:32:34.892Z,101231.81
2024-04-18T10:35:04.621Z,101222.75
2024-04-18T10:37:34.352Z,101230.75
2024-04-18T10:40:07.896Z,101227.56
2024-04-18T10:42:41.401Z,101244.50
2024-04-18T10:45:14.163Z,101234.13
2024-04-18T10:47:41.651Z,101240.13
2024-04-18T10:50:12.480Z,101246.19
2024-04-18T10:52:43.588Z,101233.72
2024-04-18T10:55:13.432Z,101240.81
2024-04-18T10:57:40.920Z,101243.03
2024-04-18T11:00:19.071Z,101238.34
2024-04-18T11:02:48.986Z,101236.91
2024-04-18T11:05:18.936Z,101240.28
2024-04-18T11:07:54.966Z,101236.34
2024-04-18T11:10:27.146Z,101238.53
2024-04-18T11:12:58.241Z,101228.13
2024-04-18T11:15:31.933Z,101227.56
2024-04-18T11:18:06.048Z,101227.84
2024-04-18T11:20:36.116Z,101232.56
2024-04-18T11:23:13.615Z,101229.56
2024-04-18T11:25:45.632Z,101232.13
2024-04-18T11:28:16.428Z,101228.97
2024-04-18T11:30:49.346Z,101232.56
2024-04-18T11:33:23.184Z,101239.31
2024-04-18T11:35:53.645Z,101244.13
2024-04-18T11:38:23.770Z,101243.88
2024-04-18T11:40:53.519Z,101245.81
2024-04-18T11:43:23.264Z,101245.38
2024-04-18T11:45:55.681Z,101248.41
2024-04-18T11:48:25.715Z,101249.22
2024-04-18T11:50:55.646Z,101245.09
2024-04-18T11:53:25.381Z,101249.28
2024-04-18T11:55:57.606Z,101246.47
2024-04-18T11:58:30.872Z,101237.84
2024-04-18T12:01:04.083Z,101250.28
2024-04-18T12:03:43.580Z,101249.22
2024-04-18T12:06:32.470Z,101246.34
2024-04-18T12:09:02.425Z,101252.41
2024-04-18T12:11:33.448Z,101254.47
2024-04-18T12:14:15.541Z,101254.31
2024-04-18T12:17:00.419Z,101258.44
2024-04-18T12:19:45.885Z,101258.72
2024-04-18T12:22:34.140Z,101254.66
2024-04-18T12:25:16.734Z,101260.63
2024-04-18T12:27:46.555Z,101262.22
2024-04-18T12:30:35.568Z,101262.16
2024-04-18T12:33:26.437Z,101254.66
2024-04-18T12:35:56.378Z,101260.75
2024-04-18T12:38:23.497Z,101260.66
2024-04-18T12:41:03.774Z,101261.50
2024-04-18T12:43:35.255Z,101264.78
2024-04-18T12:46:11.572Z,101264.31
2024-04-18T12:48:56.936Z,101261.19
2024-04-18T12:51:27.190Z,101264.38
2024-04-18T12:53:57.672Z,101266.16
2024-04-18T12:56:49.428Z,101263.03
2024-04-18T12:59:26.019Z,101259.25
2024-04-18T13:01:56.001Z,101262.78
2024-04-18T13:04:28.520Z,101258.06
2024-04-18T13:06:58.590Z,101263.63
2024-04-18T13:09:31.355Z,101262.63
2024-04-18T13:12:04.830Z,101268.50
2024-04-18T13:14:53.993Z,101257.25
2024-04-18T13:17:24.383Z,101264.41
2024-04-18T13:19:56.834Z,101251.72
2024-04-18T13:22:26.523Z,101262.00
2024-04-18T13:24:56.430Z,101250.88
2024-04-18T13:27:32.616Z,101250.59
2024-04-18T13:30:04.960Z,101254.50
2024-04-18T13:32:35.174Z,101254.31
2024-04-18T13:35:08.489Z,101246.66
2024-04-18T13:37:38.499Z,101246.50
2024-04-18T13:40:21.319Z,101245.91
2024-04-18T13:43:02.509Z,101255.72
2024-04-18T13:45:33.853Z,101252.66
2024-04-18T13:48:04.745Z,101256.09
2024-04-18T13:50:52.887Z,101250.59
2024-04-18T13:53:22.710Z,101257.59
2024-04-18T13:55:52.677Z,101259.47
2024-04-18T13:58:24.140Z,101252.91
2024-04-18T14:01:02.872Z,101254.00
2024-04-18T14:03:33.198Z,101249.16
2024-04-18T14:06:10.468Z,101251.56
2024-04-18T14:08:41.217Z,101247.22
2024-04-18T14:11:31.055Z,101253.34
2024-04-18T14:14:11.429Z,101244.88
2024-04-18T14:17:17.428Z,101250.47
2024-04-18T14:20:05.380Z,101258.59
2024-04-18T14:22:37.883Z,101240.94
2024-04-18T14:25:08.264Z,101249.66
2024-04-18T14:27:38.218Z,101241.50
2024-04-18T14:30:28.369Z,101245.75
2024-04-18T14:33:12.836Z,101247.09
2024-04-18T14:35:42.904Z,101249.09
2024-04-18T14:38:15.369Z,101250.13
2024-04-18T14:40:53.271Z,101252.81
2024-04-18T14:43:27.878Z,101245.22
2024-04-18T14:45:57.907Z,101249.19
2024-04-18T14:48:47.690Z,101252.97
2024-04-18T14:51:26.372Z,101237.34
2024-04-18T14:53:58.765Z,101252.81
2024-04-18T14:56:41.708Z,101242.84
2024-04-18T14:59:11.404Z,101233.53
2024-04-18T15:01:41.114Z,101234.94
2024-04-18T15:04:10.877Z,101234.97
2024-04-18T15:07:00.825Z,101213.84
2024-04-18T15:09:44.560Z,101222.13
2024-04-18T15:12:14.678Z,101217.47
2024-04-18T15:14:45.067Z,101211.44
2024-04-18T15:17:16.441Z,101208.28
2024-04-18T15:19:46.711Z,101211.25
2024-04-18T15:22:36.049Z,101210.72
2024-04-18T15:25:26.921Z,101216.19
2024-04-18T15:27:56.897Z,101208.34
2024-04-18T15:30:26.985Z,101211.88
2024-04-18T15:32:56.922Z,101213.66
2024-04-18T15:35:26.662Z,101212.19
2024-04-18T15:38:15.433Z,101218.09
2024-04-18T15:41:07.725Z,101218.53
2024-04-18T15:43:37.778Z,101224.75
2024-04-18T15:46:07.847Z,101228.19
2024-04-18T15:48:37.852Z,101231.50
2024-04-18T15:51:09.540Z,101221.19
2024-04-18T15:53:59.468Z,101225.72
2024-04-18T15:56:31.755Z,101226.50
2024-04-18T15:59:02.026Z,101226.53
2024-04-18T16:01:50.758Z,101227.00
2024-04-18T16:04:39.487Z,101229.38
2024-04-18T16:07:09.312Z,101227.56
2024-04-18T16:09:54.340Z,101232.06
2024-04-18T16:12:26.934Z,101233.97
2024-04-18T16:15:03.476Z,101231.31
2024-04-18T16:17:34.354Z,101235.69
2024-04-18T16:20:13.920Z,101229.56
2024-04-18T16:22:43.803Z,101232.31
2024-04-18T16:25:30.411Z,101236.69
2024-04-18T16:28:04.067Z,101236.69
2024-04-18T16:30:33.965Z,101232.41
2024-04-18T16:33:03.942Z,101233.25
2024-04-18T16:35:33.727Z,101230.72
2024-04-18T16:38:15.441Z,101231.50
2024-04-18T16:40:54.306Z,101235.88
2024-04-18T16:43:38.265Z,101235.03
2024-04-18T16:46:09.196Z,101242.84
2024-04-18T16:48:40.088Z,101235.13
2024-04-18T16:51:10.070Z,101226.59
2024-04-18T16:53:59.485Z,101225.72
2024-04-18T16:56:49.192Z,101226.44
2024-04-18T16:59:21.671Z,101230.97
2024-04-18T17:01:51.576Z,101231.88
2024-04-18T17:04:21.573Z,101222.41
2024-04-18T17:07:09.572Z,101220.53
2024-04-18T17:09:58.973Z,101224.91
2024-04-18T17:12:28.809Z,101231.09
2024-04-18T17:15:24.021Z,101227.63
2024-04-18T17:17:54.054Z,101224.94
2024-04-18T17:20:29.909Z,101225.84
2024-04-18T17:22:59.837Z,101233.75
2024-04-18T17:25:29.846Z,101229.38
2024-04-18T17:27:59.782Z,101221.56
2024-04-18T17:30:32.158Z,101224.38
2024-04-18T17:33:01.934Z,101213.19
2024-04-18T17:35:31.650Z,101230.78
2024-04-18T17:38:15.082Z,101230.84
2024-04-18T17:41:02.549Z,101234.44
2024-04-18T17:43:33.864Z,101229.25
2024-04-18T17:46:06.568Z,101238.03
2024-04-18T17:48:47.722Z,101242.34
2024-04-18T17:51:17.798Z,101238.06
2024-04-18T17:53:47.605Z,101238.13
2024-04-18T17:56:18.069Z,101233.78
2024-04-18T17:58:47.818Z,101227.78
2024-04-18T18:01:20.283Z,101236.63
2024-04-18T18:04:10.353Z,101236.66
2024-04-18T18:06:40.193Z,101240.06
2024-04-18T18:09:09.978Z,101245.31
2024-04-18T18:11:39.869Z,101238.31
2024-04-18T18:14:09.716Z,101231.44
2024-04-18T18:17:01.828Z,101231.38
2024-04-18T18:19:31.808Z,101232.28
2024-04-18T18:22:00.617Z,101228.84
2024-04-18T18:24:30.465Z,101231.41
2024-04-18T18:27:00.225Z,101225.38
2024-04-18T18:29:27.381Z,101224.47
2024-04-18T18:32:14.806Z,101232.41
2024-04-18T18:34:42.884Z,101230.69
2024-04-18T18:37:12.810Z,101227.25
2024-04-18T18:39:43.071Z,101218.50
2024-04-18T18:42:10.406Z,101226.38
2024-04-18T18:44:40.283Z,101226.44
2024-04-18T18:47:10.036Z,101216.91
2024-04-18T18:49:51.768Z,101227.38
2024-04-18T18:52:19.650Z,101223.88
2024-04-18T18:54:49.947Z,101224.78
2024-04-18T18:57:17.111Z,101223.06
2024-04-18T18:59:47.063Z,101223.13
2024-04-18T19:02:16.882Z,101226.59
2024-04-18T19:05:05.029Z,101222.31
2024-04-18T19:07:32.210Z,101226.66
2024-04-18T19:10:02.274Z,101226.63
2024-04-18T19:12:29.465Z,101225.81
2024-04-18T19:15:01.450Z,101214.53
2024-04-18T19:17:32.063Z,101218.88
2024-04-18T19:20:02.012Z,101217.13
2024-04-18T19:22:29.154Z,101219.78
2024-04-18T19:24:58.837Z,101211.06
2024-04-18T19:27:26.056Z,101211.97
2024-04-18T19:29:57.234Z,101205.88
2024-04-18T19:32:24.967Z,101205.00
2024-04-18T19:34:57.371Z,101211.13
2024-04-18T19:37:24.466Z,101209.38
2024-04-18T19:39:54.708Z,101219.84
2024-04-18T19:42:21.797Z,101214.66
2024-04-18T19:44:55.792Z,101219.88
2024-04-18T19:47:22.882Z,101205.97
2024-04-18T19:49:52.546Z,101213.84
2024-04-18T19:52:22.532Z,101212.09
2024-04-18T19:54:52.579Z,101211.25
2024-04-18T19:57:22.315Z,101222.53
2024-04-18T19:59:49.463Z,101218.19
2024-04-18T20:02:19.336Z,101219.97
2024-04-18T20:04:46.476Z,101224.34
2024-04-18T20:07:16.412Z,101211.31
2024-04-18T20:09:46.300Z,101210.44
2024-04-18T20:12:16.070Z,101205.25
2024-04-18T20:15:03.238Z,101206.13
2024-04-18T20:17:32.991Z,101202.66
2024-04-18T20:20:00.124Z,101193.09
2024-04-18T20:22:29.813Z,101201.81
2024-04-18T20:24:59.605Z,101190.50
2024-04-18T20:27:42.323Z,101194.84
2024-04-18T20:30:09.940Z,101189.66
2024-04-18T20:32:59.696Z,101194.00
2024-04-18T20:35:26.874Z,101192.28
2024-04-18T20:37:56.991Z,101192.22
2024-04-18T20:40:26.869Z,101178.38
2024-04-18T20:42:56.612Z,101187.91
2024-04-18T20:45:23.818Z,101187.00
2024-04-18T20:47:55.224Z,101187.88
2024-04-18T20:50:22.359Z,101193.13
2024-04-18T20:52:52.128Z,101198.34
2024-04-18T20:55:19.209Z,101193.97
2024-04-18T20:57:51.646Z,101181.81
2024-04-18T21:00:28.146Z,101188.78
2024-04-18T21:02:58.002Z,101181.81
2024-04-18T21:05:25.063Z,101177.47
2024-04-18T21:07:54.953Z,101183.53
2024-04-18T21:10:22.152Z,101176.59
2024-04-18T21:12:54.498Z,101173.16
2024-04-18T21:15:21.716Z,101156.66
2024-04-18T21:17:51.606Z,101167.03
2024-04-18T21:20:18.707Z,101164.47
2024-04-18T21:22:49.487Z,101152.31
2024-04-18T21:25:16.931Z,101165.31
2024-04-18T21:27:46.683Z,101154.91
2024-04-18T21:30:16.822Z,101150.56
2024-04-18T21:32:46.655Z,101160.97
2024-04-18T21:35:31.199Z,101156.66
2024-04-18T21:38:01.125Z,101156.63
2024-04-18T21:40:28.964Z,101157.50
2024-04-18T21:43:03.837Z,101160.06
2024-04-18T21:45:34.281Z,101148.81
2024-04-18T21:48:04.230Z,101147.06
2024-04-18T21:50:31.628Z,101135.78
2024-04-18T21:53:01.852Z,101150.53
2024-04-18T21:55:29.094Z,101145.34
2024-04-18T21:57:58.838Z,101134.94
2024-04-18T22:00:29.288Z,101137.50
2024-04-18T22:03:02.053Z,101132.31
2024-04-18T22:05:31.907Z,101134.91
2024-04-18T22:08:02.020Z,101131.44
2024-04-18T22:10:32.012Z,101127.97
2024-04-18T22:12:59.207Z,101118.44
2024-04-18T22:15:29.080Z,101128.84
2024-04-18T22:17:56.435Z,101135.78
2024-04-18T22:20:28.856Z,101127.97
2024-04-18T22:23:14.405Z,101127.97
2024-04-18T22:25:45.411Z,101128.00
2024-04-18T22:28:12.601Z,101120.19
2024-04-18T22:30:42.441Z,101121.03
2024-04-18T22:33:09.613Z,101123.63
2024-04-18T22:35:42.337Z,101118.44
2024-04-18T22:38:09.492Z,101116.69
2024-04-18T22:40:39.632Z,101107.16
2024-04-18T22:43:06.782Z,101095.88
2024-04-18T22:45:36.509Z,101092.38
2024-04-18T22:48:04.184Z,101095.88
2024-04-18T22:50:33.973Z,101083.72
2024-04-18T22:53:04.020Z,101083.72
2024-04-18T22:55:33.807Z,101082.84
2024-04-18T22:58:05.137Z,101077.66
2024-04-18T23:00:38.984Z,101081.97
2024-04-18T23:03:06.990Z,101076.78
2024-04-18T23:05:39.903Z,101070.72
2024-04-18T23:08:09.810Z,101070.69
2024-04-18T23:10:39.563Z,101065.50
2024-04-18T23:13:06.966Z,101062.06
2024-04-18T23:15:54.682Z,101059.47
2024-04-18T23:18:21.982Z,101066.41
2024-04-18T23:20:55.462Z,101054.25
2024-04-18T23:23:35.761Z,101053.38
2024-04-18T23:26:05.634Z,101054.25
2024-04-18T23:28:32.815Z,101049.88
2024-04-18T23:31:02.646Z,101047.28
2024-04-18T23:33:32.650Z,101052.47
2024-04-18T23:36:00.988Z,101040.38
2024-04-18T23:38:30.745Z,101042.94
2024-04-18T23:41:00.580Z,101032.56
2024-04-18T23:43:30.422Z,101029.97
2024-04-18T23:45:58.032Z,101020.41
2024-04-18T23:48:27.923Z,101022.16
2024-04-18T23:50:55.233Z,101010.88
2024-04-18T23:53:24.956Z,101005.66
2024-04-18T23:55:52.178Z,101001.34
2024-04-18T23:58:24.688Z,101003.94
